Hub


Voltar

 INFORMAÇÕES METEOROLÓGICAS

METAR FOR LPMA


ADDS - METARS form results

(2323 UTC 17 February 2019)
Data provider http://aviationweather.gov/metar/data/
 
METAR text: LPMA 172300Z VRB06G20KT 9999 SCT016 15/10 Q1024
Conditions at: LPMA (FUNCHAL/MADEIRA , PT) observed 2300 UTC 17 February 2019
Temperature: 15.0°C (59°F)
Dewpoint: 10.0°C (50°F) [RH = 72%]
Pressure (altimeter): 30.24 inches Hg (1024.0 mb)
Winds: variable direction winds at 7 MPH (6 knots; 3.1 m/s)
gusting to 23 MPH (20 knots; 10.3 m/s)
Visibility: 6 or more miles (10+ km)
Ceiling: at least 12,000 feet AGL
Clouds: scattered clouds at 1600 feet AGL
Weather: no significant weather observed at this time

METAR text: LPMA 172230Z 01010G25KT 310V080 9999 SCT015 16/10 Q1024
Conditions at: LPMA (FUNCHAL/MADEIRA , PT) observed 2230 UTC 17 February 2019
Temperature: 16.0°C (61°F)
Dewpoint: 10.0°C (50°F) [RH = 68%]
Pressure (altimeter): 30.24 inches Hg (1024.0 mb)
Winds: from the N (10 degrees) at 12 MPH (10 knots; 5.1 m/s)
gusting to 29 MPH (25 knots; 12.9 m/s)
Visibility: 6 or more miles (10+ km)
Ceiling: at least 12,000 feet AGL
Clouds: scattered clouds at 1500 feet AGL
Weather: no significant weather observed at this time

Forecast for: LPMA (FUNCHAL/MADEIRA , PT)
Text: TAF LPMA 172300Z 1800/1824 01013KT 9999 SCT015
Forecast period: 0000 UTC 18 February 2019 to 0000 UTC 19 February 2019
Forecast type: FROM: standard forecast or significant change
Winds: from the N (10 degrees) at 15 MPH (13 knots; 6.7 m/s)
Visibility: 6 or more miles 10+ km)
Ceiling: at least 12,000 feet AGL
Clouds: scattered clouds at 1500 feet AGL
Weather: no significant weather forecast for this period
Text: TEMPO 1800/1821 01015G25KT SCT015 BKN030
Forecast period: 0000 to 2100 UTC 18 February 2019
Forecast type: TEMPORARY: The following changes expected for less than half the time period
Winds: from the N (10 degrees) at 17 MPH (15 knots; 7.7 m/s)
gusting to 29 MPH (25 knots; 12.9 m/s)
Visibility: missing
Ceiling: 3000 feet AGL
Clouds: scattered clouds at 1500 feet AGL
broken clouds at 3000 feet AGL
Weather: no significant weather forecast for this period


 MAPA DO AEROPORTO


 INFORMAÇÕES DA PISTA

Pista 05 Tamanho da pista 9110 ft Largura da pista 148 ft
Elevação da pista 147 ft Ranhura da pista 480 ft Proa da pista 45
Pista 23 Tamanho da pista 9110 ft Largura da pista 148 ft
Elevação da pista 192 ft Ranhura da pista 490 ft Proa da pista 225

 FREQUÊNCIAS DO AEROPORTO

Tipo APP Nome APP Frequência 119.2 MHZ
Tipo TWR Nome TWR Frequência 118.35 MHZ

 AUXÍLIOS DE NAVEGAÇÃO PRÓXIMOS AO AEROPORTO

Tipo VOR-DME Nome Madeira Frequência 112200 KHZ
Tipo NDB Nome Madeira Frequência 318 KHZ